Portada
METAR-TAF:

METAR-TAF

Aeroports :

Indianàpolis, Indiana, Estats Units d'Amèrica

latitud: 39-43-30N, longitud: 086-16-55W, altitud: 243 m

Observació

L'informe es va fer fa 6 minuts, a les 19:54 UTC
Vent 6 kt del Est/Nord-Est
Temperatura 16°C
Humitat 21%
Pressió 1031 hPa
Visibilitat: 16.1 km
Núvols disperses a una alçada de 25000 ft

METAR: KIND 201954Z 06006KT 10SM SCT250 16/M06 A3044 RMK AO2 SLP311 T01561056

Hora: 16:00 (20:00 UTC)

Pronòstic

L'informe es va fer fa 2 hores i 40 minuts, a les 17:20 UTC
Pronòstic vàlid del 20 a les 18 UTC al 21 a les 24 UTC
Vent 5 kt del Nord-Est
Visibilitat: 10 km
Cel clar
A partir de les 21 a les 1200 UTC
Vent 4 kt del Est
Visibilitat: 10 km
Núvols disperses a una alçada de 20000 ft

TAF: KIND 201720Z 2018/2124 04005KT P6SM SKC FM211200 10004KT P6SM SCT200

Observacions i pronòstics meteorològics de més de 4000 aeroports (METAR i TAF).

Les estacions disponibles són els punts grocs i vermells al mapa.

Posi el ratolí al punt desitjat per veure el nom de l'estació.

Feu clic per veure les observacions i els pronòstics meteorològics.

Per canviar el mapa: feu clic els botons verds amb una creu de color negre per apropar; al botó verd amb un guió per allunyar la imatge; o en les fletxes verdes per a mapes adjacents.


METAR-TAF: